createdAt,value
2022-12-28T00:01:38.002Z,74.83
2022-12-28T00:05:00.191Z,74.56
2022-12-28T00:08:33.517Z,74.80
2022-12-28T00:11:56.092Z,74.73
2022-12-28T00:15:18.460Z,74.61
2022-12-28T00:18:40.598Z,74.75
2022-12-28T00:22:03.089Z,74.91
2022-12-28T00:25:25.889Z,74.66
2022-12-28T00:28:49.201Z,74.88
2022-12-28T00:32:11.433Z,74.88
2022-12-28T00:35:33.766Z,74.62
2022-12-28T00:38:56.101Z,74.77
2022-12-28T00:42:19.061Z,74.46
2022-12-28T00:45:43.602Z,74.86
2022-12-28T00:49:05.994Z,74.89
2022-12-28T00:52:28.857Z,74.70
2022-12-28T00:55:51.107Z,74.98
2022-12-28T00:59:13.250Z,74.60
2022-12-28T01:02:35.378Z,74.80
2022-12-28T01:05:59.943Z,74.97
2022-12-28T01:09:22.346Z,74.81
2022-12-28T01:12:48.102Z,74.72
2022-12-28T01:16:11.684Z,74.91
2022-12-28T01:19:33.623Z,74.87
2022-12-28T01:22:56.135Z,74.69
2022-12-28T01:26:18.801Z,74.54
2022-12-28T01:29:40.871Z,74.70
2022-12-28T01:33:03.317Z,74.48
2022-12-28T01:36:26.245Z,74.64
2022-12-28T01:39:48.387Z,74.59
2022-12-28T01:43:13.497Z,74.44
2022-12-28T01:46:38.439Z,74.20
2022-12-28T01:50:05.892Z,74.37
2022-12-28T01:53:28.368Z,74.29
2022-12-28T01:56:51.577Z,74.38
2022-12-28T02:00:15.686Z,74.28
2022-12-28T02:03:40.419Z,74.40
2022-12-28T02:07:05.432Z,74.32
2022-12-28T02:10:40.837Z,74.33
2022-12-28T02:14:09.490Z,74.48
2022-12-28T02:17:35.001Z,74.52
2022-12-28T02:21:15.018Z,74.49
2022-12-28T02:25:12.879Z,74.65
2022-12-28T02:28:56.330Z,74.71
2022-12-28T02:32:27.797Z,74.82
2022-12-28T02:35:55.115Z,74.76
2022-12-28T02:39:20.905Z,75.09
2022-12-28T02:42:44.843Z,75.13
2022-12-28T02:46:28.630Z,75.04
2022-12-28T02:50:08.957Z,75.24
2022-12-28T02:53:46.241Z,75.22
2022-12-28T02:57:14.549Z,75.26
2022-12-28T03:00:43.223Z,75.28
2022-12-28T03:04:11.206Z,75.06
2022-12-28T03:07:56.271Z,75.00
2022-12-28T03:11:25.516Z,74.97
2022-12-28T03:14:51.116Z,74.84
2022-12-28T03:18:33.663Z,74.85
2022-12-28T03:22:15.141Z,74.89
2022-12-28T03:25:58.037Z,74.77
2022-12-28T03:29:44.549Z,74.96
2022-12-28T03:33:08.014Z,74.96
2022-12-28T03:36:35.201Z,74.98
2022-12-28T03:40:00.414Z,75.14
2022-12-28T03:43:41.121Z,75.15
2022-12-28T03:47:08.603Z,75.30
2022-12-28T03:50:34.517Z,75.45
2022-12-28T03:53:59.117Z,75.62
2022-12-28T03:57:24.132Z,75.73
2022-12-28T04:00:47.613Z,75.85
2022-12-28T04:04:11.237Z,76.17
2022-12-28T04:07:33.279Z,76.12
2022-12-28T04:11:00.589Z,76.25
2022-12-28T04:14:23.258Z,76.23
2022-12-28T04:17:45.710Z,76.23
2022-12-28T04:21:08.272Z,76.34
2022-12-28T04:24:33.075Z,76.47
2022-12-28T04:27:55.480Z,76.44
2022-12-28T04:31:40.355Z,76.49
2022-12-28T04:35:06.828Z,76.42
2022-12-28T04:38:36.955Z,76.35
2022-12-28T04:41:59.600Z,76.40
2022-12-28T04:45:22.578Z,76.16
2022-12-28T04:48:44.780Z,76.43
2022-12-28T04:52:06.752Z,76.12
2022-12-28T04:55:32.411Z,76.13
2022-12-28T04:58:56.656Z,76.20
2022-12-28T05:02:21.141Z,76.28
2022-12-28T05:05:45.405Z,76.27
2022-12-28T05:09:07.922Z,76.26
2022-12-28T05:12:30.268Z,76.45
2022-12-28T05:15:53.123Z,76.44
2022-12-28T05:19:16.315Z,76.32
2022-12-28T05:22:41.230Z,76.48
2022-12-28T05:26:07.336Z,76.62
2022-12-28T05:29:32.212Z,76.58
2022-12-28T05:32:55.110Z,76.63
2022-12-28T05:36:18.316Z,76.61
2022-12-28T05:39:40.786Z,76.63
2022-12-28T05:43:03.053Z,76.69
2022-12-28T05:46:26.595Z,76.63
2022-12-28T05:49:48.855Z,76.60
2022-12-28T05:53:11.811Z,76.58
2022-12-28T05:56:34.550Z,76.62
2022-12-28T05:59:57.393Z,76.74
2022-12-28T06:03:22.268Z,76.74
2022-12-28T06:06:45.231Z,76.77
2022-12-28T06:10:08.680Z,76.58
2022-12-28T06:13:31.755Z,76.67
2022-12-28T06:16:54.068Z,76.46
2022-12-28T06:20:16.744Z,76.53
2022-12-28T06:23:40.491Z,76.50
2022-12-28T06:27:02.871Z,76.59
2022-12-28T06:30:25.685Z,76.49
2022-12-28T06:33:49.659Z,76.33
2022-12-28T06:37:12.507Z,76.66
2022-12-28T06:41:02.833Z,76.62
2022-12-28T06:44:17.788Z,76.59
2022-12-28T06:47:40.197Z,76.69
2022-12-28T06:51:04.328Z,76.68
2022-12-28T06:54:26.652Z,76.83
2022-12-28T06:57:49.381Z,76.87
2022-12-28T07:01:14.067Z,76.96
2022-12-28T07:04:36.476Z,76.93
2022-12-28T07:07:58.541Z,77.10
2022-12-28T07:11:21.673Z,77.02
2022-12-28T07:14:44.051Z,76.96
2022-12-28T07:18:06.973Z,77.08
2022-12-28T07:21:32.313Z,76.88
2022-12-28T07:24:54.651Z,77.23
2022-12-28T07:28:17.205Z,77.00
2022-12-28T07:31:45.451Z,76.83
2022-12-28T07:35:09.983Z,76.76
2022-12-28T07:38:33.586Z,76.79
2022-12-28T07:41:56.168Z,76.75
2022-12-28T07:45:18.307Z,76.70
2022-12-28T07:48:41.338Z,76.84
2022-12-28T07:52:03.778Z,76.77
2022-12-28T07:55:29.318Z,76.83
2022-12-28T07:58:54.174Z,76.84
2022-12-28T08:02:16.200Z,76.77
2022-12-28T08:05:40.522Z,76.57
2022-12-28T08:09:05.010Z,76.80
2022-12-28T08:12:27.113Z,76.64
2022-12-28T08:15:54.454Z,76.80
2022-12-28T08:19:18.036Z,76.99
2022-12-28T08:22:40.418Z,76.88
2022-12-28T08:26:06.620Z,76.81
2022-12-28T08:29:28.990Z,76.97
2022-12-28T08:32:51.552Z,77.03
2022-12-28T08:36:14.511Z,77.22
2022-12-28T08:41:05.188Z,77.06
2022-12-28T08:45:37.174Z,77.14
2022-12-28T08:49:05.966Z,76.95
2022-12-28T08:52:33.856Z,77.09
2022-12-28T08:56:07.261Z,76.76
2022-12-28T08:59:34.212Z,76.88
2022-12-28T09:03:03.700Z,76.65
2022-12-28T09:06:35.249Z,76.72
2022-12-28T09:10:06.970Z,76.60
2022-12-28T09:13:34.573Z,76.52
2022-12-28T09:17:02.256Z,76.83
2022-12-28T09:20:32.609Z,76.60
2022-12-28T09:23:59.774Z,76.63
2022-12-28T09:27:26.696Z,76.68
2022-12-28T09:30:57.953Z,76.81
2022-12-28T09:34:36.124Z,76.78
2022-12-28T09:38:03.616Z,76.65
2022-12-28T09:41:34.187Z,76.59
2022-12-28T09:45:06.679Z,76.89
2022-12-28T09:48:37.988Z,76.39
2022-12-28T09:52:29.268Z,76.70
2022-12-28T09:56:03.675Z,76.50
2022-12-28T09:59:35.697Z,76.64
2022-12-28T10:03:08.791Z,76.45
2022-12-28T10:06:37.002Z,76.37
2022-12-28T10:10:04.950Z,76.40
2022-12-28T10:13:54.585Z,76.45
2022-12-28T10:17:31.282Z,76.46
2022-12-28T10:21:00.876Z,76.25
2022-12-28T10:24:32.190Z,76.12
2022-12-28T10:28:03.069Z,76.14
2022-12-28T10:31:43.596Z,76.16
2022-12-28T10:35:29.351Z,76.20
2022-12-28T10:38:58.320Z,76.22
2022-12-28T10:42:28.569Z,76.10
2022-12-28T10:45:56.080Z,76.10
2022-12-28T10:49:23.729Z,76.02
2022-12-28T10:53:00.477Z,76.29
2022-12-28T10:56:30.247Z,75.76
2022-12-28T11:00:14.911Z,75.60
2022-12-28T11:03:44.400Z,75.70
2022-12-28T11:07:31.155Z,75.74
2022-12-28T11:11:02.705Z,75.43
2022-12-28T11:14:34.445Z,75.74
2022-12-28T11:18:03.170Z,75.89
2022-12-28T11:21:29.658Z,75.73
2022-12-28T11:25:00.011Z,75.67
2022-12-28T11:28:26.812Z,75.59
2022-12-28T11:32:01.606Z,75.61
2022-12-28T11:35:33.265Z,75.50
2022-12-28T11:39:00.024Z,75.61
2022-12-28T11:42:56.445Z,75.37
2022-12-28T11:46:43.157Z,75.66
2022-12-28T11:50:58.694Z,75.33
2022-12-28T11:54:40.683Z,75.33
2022-12-28T11:58:44.675Z,75.26
2022-12-28T12:02:44.865Z,75.49
2022-12-28T12:06:13.100Z,75.27
2022-12-28T12:09:49.528Z,75.22
2022-12-28T12:13:44.986Z,75.35
2022-12-28T12:17:18.667Z,75.16
2022-12-28T12:20:54.116Z,75.34
2022-12-28T12:24:29.004Z,75.25
2022-12-28T12:27:59.790Z,75.02
2022-12-28T12:31:31.533Z,75.31
2022-12-28T12:35:03.805Z,75.16
2022-12-28T12:38:47.472Z,75.13
2022-12-28T12:42:24.513Z,75.40
2022-12-28T12:45:59.466Z,75.35
2022-12-28T12:49:39.100Z,75.64
2022-12-28T12:53:19.695Z,75.57
2022-12-28T12:56:53.591Z,75.61
2022-12-28T13:00:22.630Z,75.73
2022-12-28T13:03:51.076Z,75.86
2022-12-28T13:07:25.396Z,75.88
2022-12-28T13:10:55.822Z,75.86
2022-12-28T13:14:25.026Z,75.83
2022-12-28T13:21:53.848Z,75.94
2022-12-28T13:25:29.862Z,75.66
2022-12-28T13:29:01.617Z,75.82
2022-12-28T13:32:35.995Z,75.92
2022-12-28T13:36:15.379Z,75.72
2022-12-28T13:39:42.649Z,75.78
2022-12-28T13:43:49.033Z,75.75
2022-12-28T13:47:23.950Z,75.91
2022-12-28T13:50:52.653Z,75.87
2022-12-28T13:54:19.802Z,75.90
2022-12-28T13:57:55.735Z,75.90
2022-12-28T14:01:29.494Z,76.15
2022-12-28T14:04:57.255Z,76.12
2022-12-28T14:08:25.124Z,76.04
2022-12-28T14:11:52.144Z,76.09
2022-12-28T14:15:19.876Z,76.13
2022-12-28T14:18:48.168Z,76.29
2022-12-28T14:22:32.026Z,76.13
2022-12-28T14:26:00.003Z,76.01
2022-12-28T14:29:32.589Z,76.04
2022-12-28T14:33:02.564Z,76.05
2022-12-28T14:36:34.202Z,76.05
2022-12-28T14:40:06.295Z,76.09
2022-12-28T14:43:37.997Z,76.12
2022-12-28T14:47:25.654Z,76.20
2022-12-28T14:51:02.846Z,76.18
2022-12-28T14:54:30.774Z,76.24
2022-12-28T14:58:03.917Z,76.16
2022-12-28T15:01:43.621Z,76.08
2022-12-28T15:05:38.772Z,75.94
2022-12-28T15:09:08.715Z,76.04
2022-12-28T15:12:36.064Z,76.21
2022-12-28T15:16:06.882Z,75.99
2022-12-28T15:19:34.032Z,75.98
2022-12-28T15:23:00.350Z,75.99
2022-12-28T15:26:28.258Z,75.99
2022-12-28T15:30:05.310Z,76.26
2022-12-28T15:33:33.716Z,75.99
2022-12-28T15:37:00.457Z,76.06
2022-12-28T15:40:29.345Z,76.04
2022-12-28T15:43:56.644Z,76.07
2022-12-28T15:47:24.257Z,76.15
2022-12-28T15:50:51.603Z,76.02
2022-12-28T15:54:23.225Z,76.16
2022-12-28T15:57:50.367Z,76.20
2022-12-28T16:01:19.892Z,75.92
2022-12-28T16:04:48.156Z,76.09
2022-12-28T16:08:15.211Z,76.24
2022-12-28T16:11:43.236Z,76.17
2022-12-28T16:15:13.668Z,76.27
2022-12-28T16:18:42.161Z,76.31
2022-12-28T16:22:09.584Z,76.45
2022-12-28T16:29:17.408Z,76.55
2022-12-28T16:32:44.298Z,76.61
2022-12-28T16:36:16.443Z,76.61
2022-12-28T16:39:44.311Z,76.61
2022-12-28T16:43:11.832Z,76.72
2022-12-28T16:46:39.271Z,76.73
2022-12-28T16:50:06.695Z,76.79
2022-12-28T16:53:35.203Z,76.81
2022-12-28T16:57:04.359Z,76.80
2022-12-28T17:00:32.791Z,76.90
2022-12-28T17:04:04.021Z,76.91
2022-12-28T17:07:35.327Z,77.12
2022-12-28T17:11:12.086Z,77.08
2022-12-28T17:14:39.670Z,77.31
2022-12-28T17:18:08.289Z,77.26
2022-12-28T17:21:39.175Z,77.46
2022-12-28T17:25:07.573Z,77.50
2022-12-28T17:28:35.934Z,77.60
2022-12-28T17:32:04.138Z,77.65
2022-12-28T17:35:32.912Z,77.62
2022-12-28T17:38:59.688Z,77.75
2022-12-28T17:42:25.960Z,77.69
2022-12-28T17:45:52.627Z,77.87
2022-12-28T17:49:22.478Z,77.85
2022-12-28T17:52:49.556Z,77.87
2022-12-28T17:56:23.101Z,77.92
2022-12-28T17:59:54.823Z,77.96
2022-12-28T18:03:31.576Z,78.00
2022-12-28T18:07:00.490Z,78.03
2022-12-28T18:10:28.206Z,78.17
2022-12-28T18:14:00.257Z,78.06
2022-12-28T18:17:27.485Z,78.10
2022-12-28T18:21:04.244Z,78.15
2022-12-28T18:24:33.799Z,78.32
2022-12-28T18:28:01.762Z,78.36
2022-12-28T18:31:30.572Z,78.29
2022-12-28T18:35:01.666Z,78.44
2022-12-28T18:38:29.466Z,78.30
2022-12-28T18:41:56.232Z,78.11
2022-12-28T18:45:24.212Z,78.22
2022-12-28T18:49:09.540Z,78.28
2022-12-28T18:52:37.939Z,78.33
2022-12-28T18:56:07.094Z,78.37
2022-12-28T18:59:37.663Z,78.47
2022-12-28T19:03:06.220Z,78.43
2022-12-28T19:06:33.341Z,78.54
2022-12-28T19:10:25.601Z,78.33
2022-12-28T19:13:53.417Z,78.32
2022-12-28T19:17:24.871Z,78.43
2022-12-28T19:21:02.790Z,78.38
2022-12-28T19:24:37.349Z,78.51
2022-12-28T19:28:13.821Z,78.47
2022-12-28T19:31:55.381Z,78.42
2022-12-28T19:35:36.204Z,78.47
2022-12-28T19:39:04.297Z,78.53
2022-12-28T19:42:34.167Z,78.51
2022-12-28T19:46:07.087Z,78.33
2022-12-28T19:49:33.797Z,78.37
2022-12-28T19:53:04.831Z,78.43
2022-12-28T19:56:33.240Z,78.55
2022-12-28T19:59:59.686Z,78.47
2022-12-28T20:03:26.882Z,78.58
2022-12-28T20:06:54.412Z,78.66
2022-12-28T20:10:22.284Z,78.68
2022-12-28T20:13:52.648Z,78.65
2022-12-28T20:17:19.960Z,78.75
2022-12-28T20:21:17.924Z,78.63
2022-12-28T20:24:35.008Z,78.58
2022-12-28T20:28:04.053Z,78.60
2022-12-28T20:31:33.890Z,78.60
2022-12-28T20:35:00.827Z,78.64
2022-12-28T20:38:29.348Z,78.53
2022-12-28T20:42:13.821Z,78.48
2022-12-28T20:45:52.277Z,78.54
2022-12-28T20:49:23.809Z,78.50
2022-12-28T20:52:53.372Z,78.46
2022-12-28T20:56:21.568Z,78.35
2022-12-28T20:59:49.344Z,78.36
2022-12-28T21:03:16.886Z,78.51
2022-12-28T21:06:46.022Z,78.44
2022-12-28T21:10:17.422Z,78.36
2022-12-28T21:13:47.055Z,78.52
2022-12-28T21:17:15.151Z,78.46
2022-12-28T21:20:51.434Z,78.47
2022-12-28T21:24:22.622Z,78.40
2022-12-28T21:27:58.942Z,78.55
2022-12-28T21:31:28.713Z,78.43
2022-12-28T21:34:59.858Z,78.31
2022-12-28T21:38:28.739Z,78.17
2022-12-28T21:42:01.978Z,78.18
2022-12-28T21:45:33.473Z,78.03
2022-12-28T21:49:03.855Z,78.04
2022-12-28T21:52:38.141Z,77.83
2022-12-28T21:56:05.575Z,77.76
2022-12-28T21:59:35.608Z,77.79
2022-12-28T22:03:23.284Z,77.87
2022-12-28T22:06:50.253Z,77.75
2022-12-28T22:10:36.905Z,77.85
2022-12-28T22:14:05.383Z,77.79
2022-12-28T22:17:35.754Z,77.73
2022-12-28T22:21:08.103Z,77.86
2022-12-28T22:24:37.971Z,77.94
2022-12-28T22:28:09.486Z,77.76
2022-12-28T22:31:40.693Z,77.68
2022-12-28T22:35:13.382Z,77.80
2022-12-28T22:38:40.882Z,77.72
2022-12-28T22:42:08.706Z,77.47
2022-12-28T22:45:36.454Z,77.70
2022-12-28T22:49:03.432Z,77.60
2022-12-28T22:52:30.162Z,77.49
2022-12-28T22:56:20.916Z,77.60
2022-12-28T22:59:48.751Z,77.36
2022-12-28T23:03:17.773Z,77.31
2022-12-28T23:06:44.539Z,77.59
2022-12-28T23:10:13.248Z,77.54
2022-12-28T23:13:42.014Z,77.53
2022-12-28T23:17:10.572Z,77.76
2022-12-28T23:21:00.669Z,77.59
2022-12-28T23:24:59.277Z,77.67
2022-12-28T23:28:31.911Z,77.82
2022-12-28T23:32:01.816Z,77.41
2022-12-28T23:35:29.790Z,77.57
2022-12-28T23:38:59.387Z,77.62
2022-12-28T23:42:33.794Z,77.56
2022-12-28T23:46:09.747Z,77.63
2022-12-28T23:49:39.807Z,77.53
2022-12-28T23:53:12.196Z,77.67
2022-12-28T23:56:40.293Z,77.78
